Time;durP1;ratioP1;P1;durP2;ratioP2;P2;SDS_P1;SDS_P2;PMS_P1;PMS_P2;Temp;Humidity;BMP_temperature;BMP_pressure;BME280_temperature;BME280_humidity;BME280_pressure;Samples;Min_cycle;Max_cycle;Signal;HPM_P1;HPM_P2
2023/09/19 00:02:06;;;;;;;1.98;0.77;;;14.50;99.90;;;;;;5007447;28;20369;-79
2023/09/19 00:04:32;;;;;;;3.78;1.60;;;14.50;99.90;;;;;;5005891;28;20083;-81
2023/09/19 00:06:59;;;;;;;3.35;1.00;;;14.50;99.90;;;;;;5007168;28;20092;-83
2023/09/19 00:09:27;;;;;;;3.17;1.45;;;14.50;99.90;;;;;;5006822;28;20041;-84
2023/09/19 00:11:53;;;;;;;3.30;0.80;;;14.50;99.90;;;;;;5007459;28;20132;-82
2023/09/19 00:14:19;;;;;;;5.15;1.67;;;14.50;99.90;;;;;;5007088;28;20041;-80
2023/09/19 00:16:46;;;;;;;3.50;1.38;;;14.50;99.90;;;;;;5006352;28;20542;-78
2023/09/19 00:19:12;;;;;;;2.00;0.80;;;14.60;99.90;;;;;;5005894;28;20049;-81
2023/09/19 00:21:38;;;;;;;2.05;1.13;;;14.60;99.90;;;;;;5007415;28;20041;-84
2023/09/19 00:24:06;;;;;;;1.60;1.30;;;14.60;99.90;;;;;;4991227;28;20049;-75
2023/09/19 00:26:32;;;;;;;4.25;1.25;;;14.60;99.90;;;;;;5006727;28;20042;-81
2023/09/19 00:28:59;;;;;;;3.10;1.02;;;14.50;99.90;;;;;;5024458;28;20510;-79
2023/09/19 00:31:25;;;;;;;2.97;1.30;;;14.50;99.90;;;;;;5007196;28;20042;-80
2023/09/19 00:33:51;;;;;;;1.13;0.88;;;14.40;99.90;;;;;;5005564;28;20577;-80
2023/09/19 00:36:18;;;;;;;4.47;1.23;;;14.40;99.90;;;;;;4990372;28;20049;-80
2023/09/19 00:38:45;;;;;;;3.63;1.15;;;14.40;99.90;;;;;;5006875;28;20045;-83
2023/09/19 00:41:12;;;;;;;7.38;1.50;;;14.30;99.90;;;;;;5005907;28;20072;-83
2023/09/19 00:43:40;;;;;;;4.68;1.00;;;14.30;99.90;;;;;;5007582;28;20132;-76
2023/09/19 00:46:07;;;;;;;1.52;0.90;;;14.30;99.90;;;;;;4990805;28;20053;-80
2023/09/19 00:48:41;;;;;;;3.47;1.10;;;14.20;99.90;;;;;;5022982;28;20053;-79
2023/09/19 00:51:07;;;;;;;5.50;1.25;;;14.20;99.90;;;;;;4987942;28;20057;-83
2023/09/19 00:53:34;;;;;;;4.25;1.25;;;14.20;99.90;;;;;;5003465;28;20142;-81
2023/09/19 00:56:00;;;;;;;3.70;0.77;;;14.10;99.90;;;;;;5006314;28;20052;-77
2023/09/19 00:58:25;;;;;;;4.88;0.90;;;14.10;99.90;;;;;;5023733;28;20049;-79
2023/09/19 01:00:53;;;;;;;4.35;1.38;;;14.10;99.90;;;;;;5006572;28;20041;-78
2023/09/19 01:03:18;;;;;;;2.53;0.85;;;14.00;99.90;;;;;;5004799;28;20670;-83
2023/09/19 01:05:44;;;;;;;3.53;0.77;;;14.00;99.90;;;;;;5006067;28;20132;-83
2023/09/19 01:08:11;;;;;;;2.33;1.52;;;14.00;99.90;;;;;;5023450;28;20049;-79
2023/09/19 01:11:08;;;;;;;4.07;1.05;;;14.00;99.90;;;;;;5080624;22;20707;-82
2023/09/19 01:13:52;;;;;;;3.25;1.25;;;14.00;99.90;;;;;;4983996;28;20132;-83
2023/09/19 01:16:39;;;;;;;3.58;1.35;;;14.00;99.90;;;;;;5006052;28;20065;-83
2023/09/19 01:19:20;;;;;;;6.88;1.48;;;13.90;99.90;;;;;;5005070;28;20128;-79
2023/09/19 01:22:03;;;;;;;1.85;0.95;;;13.90;99.90;;;;;;5023816;28;20061;-81
2023/09/19 01:24:39;;;;;;;2.80;0.52;;;13.90;99.90;;;;;;5023579;28;20440;-80
2023/09/19 01:27:19;;;;;;;4.63;0.77;;;13.90;99.90;;;;;;5006656;28;20103;-83
2023/09/19 01:29:49;;;;;;;1.63;0.85;;;13.90;99.90;;;;;;5023628;28;20056;-77
2023/09/19 01:32:24;;;;;;;7.90;1.17;;;13.90;99.90;;;;;;5023415;28;20054;-83
2023/09/19 01:34:50;;;;;;;3.15;1.20;;;13.90;99.90;;;;;;5022456;28;20103;-81
2023/09/19 01:37:19;;;;;;;3.47;1.30;;;13.90;99.90;;;;;;5023162;28;20890;-83
2023/09/19 01:39:52;;;;;;;6.72;1.45;;;13.90;99.90;;;;;;5005989;28;20783;-81
2023/09/19 01:42:50;;;;;;;2.47;0.70;;;13.90;99.90;;;;;;5005363;28;20060;-81
2023/09/19 01:45:16;;;;;;;4.45;0.70;;;13.90;99.90;;;;;;5005057;28;20042;-80
2023/09/19 01:47:56;;;;;;;1.52;1.33;;;13.90;99.90;;;;;;5023106;28;20041;-79
2023/09/19 01:50:48;;;;;;;2.65;1.05;;;13.90;99.90;;;;;;4987798;28;20052;-80
2023/09/19 01:53:24;;;;;;;7.47;0.95;;;13.90;99.90;;;;;;5004918;28;20073;-83
2023/09/19 01:55:51;;;;;;;3.88;1.30;;;13.90;99.90;;;;;;5005305;28;20454;-82
2023/09/19 01:58:22;;;;;;;1.30;1.00;;;13.90;99.90;;;;;;5005305;28;20380;-80
2023/09/19 02:00:51;;;;;;;5.43;1.67;;;13.90;99.90;;;;;;5005949;28;20045;-77
2023/09/19 02:03:20;;;;;;;2.17;0.68;;;13.90;99.90;;;;;;5021801;28;20057;-78
2023/09/19 02:05:53;;;;;;;3.13;1.27;;;13.90;99.90;;;;;;5023178;28;20045;-83
2023/09/19 02:08:20;;;;;;;0.73;0.57;;;13.90;99.90;;;;;;5004180;28;20681;-80
2023/09/19 02:10:48;;;;;;;3.65;1.25;;;13.80;99.90;;;;;;4988161;28;20106;-80
2023/09/19 02:13:17;;;;;;;1.35;0.70;;;13.80;99.90;;;;;;5022998;28;20057;-81
2023/09/19 02:15:44;;;;;;;13.52;0.73;;;13.80;99.90;;;;;;5005242;28;20045;-78
2023/09/19 02:18:11;;;;;;;6.90;0.75;;;13.80;99.90;;;;;;5003638;28;20488;-76
2023/09/19 02:20:37;;;;;;;4.05;0.60;;;13.80;99.90;;;;;;4989095;28;20099;-82
2023/09/19 02:23:03;;;;;;;3.00;0.65;;;13.80;99.90;;;;;;5022979;28;20041;-79
2023/09/19 02:25:29;;;;;;;1.17;0.95;;;13.80;99.90;;;;;;5021881;28;20037;-80
2023/09/19 02:27:58;;;;;;;3.55;0.90;;;13.80;99.90;;;;;;5005097;28;20041;-79
2023/09/19 02:30:25;;;;;;;1.85;0.65;;;13.80;99.90;;;;;;5022699;28;20090;-83
2023/09/19 02:32:51;;;;;;;4.53;1.38;;;13.80;99.90;;;;;;5022001;28;20046;-82
2023/09/19 02:35:19;;;;;;;6.18;0.73;;;13.90;99.90;;;;;;5022434;28;20084;-83
2023/09/19 02:37:45;;;;;;;6.82;1.20;;;13.90;99.90;;;;;;5005054;28;20049;-76
2023/09/19 02:40:18;;;;;;;8.25;1.27;;;13.90;99.90;;;;;;5022296;28;20038;-79
2023/09/19 02:42:53;;;;;;;5.75;2.00;;;13.80;99.90;;;;;;5005057;28;20053;-84
2023/09/19 02:45:20;;;;;;;5.18;0.88;;;13.70;99.90;;;;;;5022329;28;20041;-78
2023/09/19 02:47:47;;;;;;;5.13;0.95;;;13.70;99.90;;;;;;5005154;28;20125;-83
2023/09/19 02:50:15;;;;;;;7.45;1.15;;;13.60;99.90;;;;;;5022018;28;20124;-83
2023/09/19 02:52:47;;;;;;;3.72;0.90;;;13.60;99.90;;;;;;5004788;28;20038;-85
2023/09/19 02:55:14;;;;;;;2.58;0.90;;;13.50;99.90;;;;;;5004408;28;20087;-78
2023/09/19 02:57:42;;;;;;;3.67;1.30;;;13.50;99.90;;;;;;4988092;28;20140;-83
2023/09/19 03:00:12;;;;;;;5.05;1.08;;;13.50;99.90;;;;;;5022308;28;20088;-76
2023/09/19 03:02:39;;;;;;;5.15;2.00;;;13.50;99.90;;;;;;5005603;28;20048;-80
2023/09/19 03:05:05;;;;;;;3.78;0.88;;;13.50;99.90;;;;;;5023258;28;20037;-81
2023/09/19 03:07:31;;;;;;;0.68;0.52;;;13.40;99.90;;;;;;5025210;28;20531;-79
2023/09/19 03:09:56;;;;;;;0.93;0.55;;;13.40;99.90;;;;;;4992482;28;20104;-80
2023/09/19 03:12:22;;;;;;;4.32;1.10;;;13.40;99.90;;;;;;5007969;28;20053;-85
2023/09/19 03:14:48;;;;;;;1.85;0.70;;;13.40;99.90;;;;;;5026110;28;20083;-85
2023/09/19 03:17:14;;;;;;;4.53;1.67;;;13.40;99.90;;;;;;4991967;28;20053;-85
2023/09/19 03:19:40;;;;;;;3.45;1.52;;;13.40;99.90;;;;;;5007874;28;20046;-85
2023/09/19 03:22:06;;;;;;;2.55;0.70;;;13.40;99.90;;;;;;5026002;28;20090;-85
2023/09/19 03:24:33;;;;;;;1.83;1.17;;;13.40;99.90;;;;;;5025803;28;20110;-84
2023/09/19 03:26:59;;;;;;;2.28;0.75;;;13.40;99.90;;;;;;5008088;28;20655;-81
2023/09/19 03:29:25;;;;;;;2.25;0.98;;;13.40;99.90;;;;;;5025943;28;20124;-78
2023/09/19 03:31:51;;;;;;;5.78;0.93;;;13.40;99.90;;;;;;5025924;28;20045;-81
2023/09/19 03:34:17;;;;;;;1.60;0.73;;;13.40;99.90;;;;;;4990843;28;20033;-79
2023/09/19 03:36:42;;;;;;;2.75;0.82;;;13.40;99.90;;;;;;5008036;28;20075;-84
2023/09/19 03:39:08;;;;;;;3.65;1.00;;;13.40;99.90;;;;;;5008813;28;20125;-84
2023/09/19 03:41:36;;;;;;;3.17;0.80;;;13.40;99.90;;;;;;5008311;28;20488;-85
2023/09/19 03:44:02;;;;;;;3.72;0.88;;;13.40;99.90;;;;;;5007855;28;20050;-85
2023/09/19 03:46:28;;;;;;;3.95;1.17;;;13.40;99.90;;;;;;5024913;28;20483;-82
2023/09/19 03:48:54;;;;;;;4.80;1.35;;;13.50;99.90;;;;;;5007220;28;20131;-81
2023/09/19 03:51:20;;;;;;;4.78;0.85;;;13.50;99.90;;;;;;5025102;28;20519;-81
2023/09/19 03:53:46;;;;;;;3.17;0.55;;;13.50;99.90;;;;;;4991014;28;20052;-78
2023/09/19 03:56:12;;;;;;;2.13;0.90;;;13.40;99.90;;;;;;5007457;28;20487;-82
2023/09/19 03:58:39;;;;;;;8.80;2.53;;;13.50;99.90;;;;;;5025847;28;20057;-85
2023/09/19 04:01:06;;;;;;;2.08;0.98;;;13.50;99.90;;;;;;4991752;28;20582;-84
2023/09/19 04:03:46;;;;;;;6.78;2.28;;;13.50;99.90;;;;;;5006446;28;20052;-83
2023/09/19 04:06:16;;;;;;;2.95;0.80;;;13.50;99.90;;;;;;5007703;28;20483;-85
2023/09/19 04:08:42;;;;;;;4.32;0.90;;;13.50;99.90;;;;;;5007579;28;20072;-75
2023/09/19 04:11:08;;;;;;;3.55;1.55;;;13.50;99.90;;;;;;5007855;28;20537;-80
2023/09/19 04:13:34;;;;;;;3.83;0.80;;;13.50;99.90;;;;;;4991638;28;20050;-78
2023/09/19 04:16:00;;;;;;;3.10;0.90;;;13.60;99.90;;;;;;5006567;28;20045;-83
2023/09/19 04:18:26;;;;;;;3.47;0.88;;;13.60;99.90;;;;;;4989148;28;20506;-84
2023/09/19 04:20:52;;;;;;;4.55;1.00;;;13.60;99.90;;;;;;4990752;28;20120;-84
2023/09/19 04:23:19;;;;;;;2.90;1.20;;;13.60;99.90;;;;;;4990375;28;20049;-86
2023/09/19 04:25:45;;;;;;;3.90;1.30;;;13.60;99.90;;;;;;5025169;28;20041;-84
2023/09/19 04:28:11;;;;;;;4.13;1.45;;;13.60;99.90;;;;;;5024529;28;20052;-79
2023/09/19 04:30:40;;;;;;;4.90;0.70;;;13.60;99.90;;;;;;5007494;28;20045;-80
2023/09/19 04:33:06;;;;;;;2.45;1.00;;;13.60;99.90;;;;;;4989990;28;20080;-81
2023/09/19 04:35:32;;;;;;;0.95;0.82;;;13.60;99.90;;;;;;5024954;28;20120;-84
2023/09/19 04:37:58;;;;;;;2.95;1.17;;;13.70;99.90;;;;;;4990526;28;20049;-85
2023/09/19 04:40:24;;;;;;;1.55;1.10;;;13.70;99.90;;;;;;4990192;28;20487;-77
2023/09/19 04:42:57;;;;;;;2.08;0.80;;;13.70;99.90;;;;;;5007083;28;20034;-84
2023/09/19 04:45:23;;;;;;;4.10;0.60;;;13.70;99.90;;;;;;5024514;28;20038;-79
2023/09/19 04:47:49;;;;;;;1.85;0.75;;;13.70;99.90;;;;;;4994286;28;20038;-81
2023/09/19 04:50:16;;;;;;;3.95;0.73;;;13.70;99.90;;;;;;5017460;28;20042;-75
2023/09/19 04:52:45;;;;;;;5.22;1.52;;;13.70;99.90;;;;;;4996195;28;20053;-75
2023/09/19 04:55:16;;;;;;;6.57;1.50;;;13.70;99.90;;;;;;5002879;28;20455;-81
2023/09/19 04:57:42;;;;;;;3.13;0.60;;;13.70;99.90;;;;;;4978157;28;20042;-79
2023/09/19 05:00:12;;;;;;;4.80;1.40;;;13.70;99.90;;;;;;4974330;28;20068;-82
2023/09/19 05:02:39;;;;;;;4.13;0.93;;;13.80;99.90;;;;;;5019464;28;20531;-81
2023/09/19 05:05:06;;;;;;;2.42;1.08;;;13.80;99.90;;;;;;5007224;28;20065;-80
2023/09/19 05:07:32;;;;;;;2.70;1.02;;;13.80;99.90;;;;;;5015820;28;20099;-78
2023/09/19 05:09:57;;;;;;;1.30;0.52;;;13.80;99.90;;;;;;5007310;28;20065;-80
2023/09/19 05:12:23;;;;;;;1.50;0.75;;;13.80;99.90;;;;;;4983672;28;20050;-78
2023/09/19 05:14:49;;;;;;;2.10;0.60;;;13.80;99.90;;;;;;5023158;28;20045;-79
2023/09/19 05:17:16;;;;;;;4.10;1.55;;;13.80;99.90;;;;;;4988442;28;20037;-80
2023/09/19 05:19:42;;;;;;;5.68;1.25;;;13.80;99.90;;;;;;4985656;28;20083;-82
2023/09/19 05:22:08;;;;;;;2.92;0.55;;;13.80;99.90;;;;;;4997428;28;20491;-81
2023/09/19 05:24:34;;;;;;;5.32;1.30;;;13.80;99.90;;;;;;5006783;28;20055;-82
2023/09/19 05:27:00;;;;;;;6.05;1.60;;;13.80;99.90;;;;;;5001141;28;20076;-81
2023/09/19 05:29:26;;;;;;;3.88;0.98;;;13.80;99.90;;;;;;4998684;28;20038;-79
2023/09/19 05:31:54;;;;;;;4.07;1.35;;;13.90;99.90;;;;;;4999061;28;20662;-79
2023/09/19 05:34:20;;;;;;;6.95;0.82;;;13.80;99.90;;;;;;5002070;28;20048;-78
2023/09/19 05:36:45;;;;;;;6.22;1.05;;;13.80;99.90;;;;;;4992158;28;20042;-78
2023/09/19 05:39:12;;;;;;;4.93;0.88;;;13.80;99.90;;;;;;4988439;28;20049;-78
2023/09/19 05:41:39;;;;;;;5.93;1.40;;;13.80;99.90;;;;;;5003467;28;20404;-78
2023/09/19 05:44:06;;;;;;;3.00;0.82;;;13.80;99.90;;;;;;5001738;28;20053;-78
2023/09/19 05:46:32;;;;;;;5.25;0.90;;;13.70;99.90;;;;;;4992776;28;20399;-79
2023/09/19 05:48:58;;;;;;;2.72;0.95;;;13.80;99.90;;;;;;5002648;28;20041;-77
2023/09/19 05:51:25;;;;;;;2.63;0.90;;;13.80;99.90;;;;;;5022509;28;20687;-78
2023/09/19 05:53:50;;;;;;;2.08;0.68;;;13.80;99.90;;;;;;5005468;28;20053;-77
2023/09/19 05:56:18;;;;;;;5.28;1.52;;;13.80;99.90;;;;;;4987223;28;20046;-78
2023/09/19 05:58:44;;;;;;;2.65;0.68;;;13.80;99.90;;;;;;5003220;28;20470;-78
2023/09/19 06:01:10;;;;;;;2.58;0.65;;;13.80;99.90;;;;;;5003994;28;20042;-79
2023/09/19 06:03:35;;;;;;;6.82;1.30;;;13.80;99.90;;;;;;5002066;28;20045;-77
2023/09/19 06:06:02;;;;;;;4.55;1.25;;;13.80;99.90;;;;;;4992754;28;20121;-79
2023/09/19 06:08:28;;;;;;;4.70;0.98;;;13.90;99.90;;;;;;4984216;28;20145;-76
2023/09/19 06:10:54;;;;;;;4.22;1.38;;;13.90;99.90;;;;;;4988013;28;20551;-78
2023/09/19 06:13:20;;;;;;;4.45;1.25;;;13.90;99.90;;;;;;5022469;28;20151;-76
2023/09/19 06:15:47;;;;;;;3.83;1.60;;;13.90;99.90;;;;;;4987805;28;20100;-77
2023/09/19 06:18:19;;;;;;;4.32;1.05;;;13.90;99.90;;;;;;5021855;28;20056;-76
2023/09/19 06:20:47;;;;;;;4.38;1.10;;;13.90;99.90;;;;;;5021349;28;20172;-78
2023/09/19 06:23:13;;;;;;;1.65;0.70;;;14.00;99.90;;;;;;5003703;28;20374;-79
2023/09/19 06:25:39;;;;;;;5.53;0.80;;;14.00;99.90;;;;;;5004091;28;20050;-76
2023/09/19 06:28:05;;;;;;;6.15;1.05;;;14.00;99.90;;;;;;5004461;28;20409;-78
2023/09/19 06:30:32;;;;;;;2.55;2.35;;;14.00;99.90;;;;;;5001678;28;20424;-79
2023/09/19 06:32:58;;;;;;;2.90;0.70;;;14.00;99.90;;;;;;5002169;28;20116;-79
2023/09/19 06:35:26;;;;;;;7.25;1.10;;;14.00;99.90;;;;;;5003256;28;20041;-79
2023/09/19 06:37:52;;;;;;;6.13;1.85;;;14.10;99.90;;;;;;5003747;28;20049;-77
2023/09/19 06:40:19;;;;;;;2.20;1.17;;;14.00;99.90;;;;;;5002502;28;20050;-78
2023/09/19 06:42:47;;;;;;;2.35;0.73;;;14.10;99.90;;;;;;5021232;28;20037;-79
2023/09/19 06:45:17;;;;;;;1.63;0.68;;;14.10;99.90;;;;;;5020678;28;20029;-79
2023/09/19 06:47:45;;;;;;;2.47;0.98;;;14.10;99.90;;;;;;5002674;28;20037;-80
2023/09/19 06:50:14;;;;;;;7.25;1.38;;;14.10;99.90;;;;;;5003384;28;20077;-78
2023/09/19 06:52:42;;;;;;;4.50;0.70;;;14.10;99.90;;;;;;5020466;28;20068;-77
2023/09/19 06:55:10;;;;;;;2.83;0.90;;;14.10;99.90;;;;;;5003544;28;20041;-79
2023/09/19 06:57:37;;;;;;;2.33;1.23;;;14.10;99.90;;;;;;4992701;28;20045;-80
2023/09/19 07:00:09;;;;;;;4.68;1.33;;;14.20;99.90;;;;;;4982577;28;20053;-78
2023/09/19 07:02:35;;;;;;;2.00;0.75;;;14.20;99.90;;;;;;5002605;28;20630;-79
2023/09/19 07:05:00;;;;;;;2.58;1.05;;;14.20;99.90;;;;;;4986443;28;20044;-76
2023/09/19 07:07:26;;;;;;;2.25;0.40;;;14.30;99.90;;;;;;4994958;28;20050;-79
2023/09/19 07:09:54;;;;;;;4.40;1.48;;;14.30;99.90;;;;;;5020713;28;20088;-80
2023/09/19 07:12:19;;;;;;;2.97;0.90;;;14.30;99.90;;;;;;5003824;28;20060;-81
2023/09/19 07:14:45;;;;;;;2.70;0.55;;;14.30;99.90;;;;;;5003967;28;20041;-77
2023/09/19 07:17:11;;;;;;;4.68;1.05;;;14.30;99.90;;;;;;5002575;28;20515;-78
2023/09/19 07:19:37;;;;;;;4.97;0.90;;;14.30;99.90;;;;;;5004003;28;20045;-75
2023/09/19 07:22:02;;;;;;;5.55;1.33;;;14.30;99.90;;;;;;4987386;28;20495;-78
2023/09/19 07:24:28;;;;;;;3.97;0.82;;;14.30;99.90;;;;;;5002948;28;20107;-78
2023/09/19 07:26:54;;;;;;;3.20;1.00;;;14.40;99.90;;;;;;4986923;28;20245;-79
2023/09/19 07:29:20;;;;;;;3.25;0.93;;;14.30;99.90;;;;;;5003050;28;20041;-79
2023/09/19 07:31:46;;;;;;;7.13;1.77;;;14.40;99.90;;;;;;5002806;28;20044;-79
2023/09/19 07:34:12;;;;;;;4.03;0.85;;;14.40;99.90;;;;;;4985744;28;20069;-80
2023/09/19 07:36:38;;;;;;;5.15;1.33;;;14.50;99.90;;;;;;5003993;28;20077;-80
2023/09/19 07:39:06;;;;;;;3.83;0.73;;;14.50;99.90;;;;;;5002881;28;20096;-79
2023/09/19 07:41:32;;;;;;;5.35;1.13;;;14.60;99.90;;;;;;5020871;28;20111;-77
2023/09/19 07:43:58;;;;;;;3.13;1.25;;;14.60;99.90;;;;;;5019806;28;20940;-77
2023/09/19 07:46:25;;;;;;;2.13;0.85;;;14.70;99.90;;;;;;5020208;28;20041;-80
2023/09/19 07:48:51;;;;;;;2.28;1.00;;;14.70;99.90;;;;;;5002108;28;20048;-80
2023/09/19 07:51:17;;;;;;;3.92;1.00;;;14.70;99.90;;;;;;5002956;28;20072;-80
2023/09/19 07:53:42;;;;;;;5.70;1.50;;;14.80;99.90;;;;;;5007015;28;20052;-79
2023/09/19 07:56:09;;;;;;;4.82;1.45;;;14.80;99.90;;;;;;5006330;28;20049;-76
2023/09/19 07:58:37;;;;;;;3.45;1.10;;;14.80;99.90;;;;;;4990470;28;20046;-79
2023/09/19 08:01:07;;;;;;;3.72;0.82;;;14.90;99.90;;;;;;5024252;28;20124;-77
2023/09/19 08:03:34;;;;;;;3.30;1.15;;;14.90;99.90;;;;;;5005458;28;20449;-82
2023/09/19 08:06:00;;;;;;;4.38;1.50;;;14.90;99.90;;;;;;5023331;28;20045;-82
2023/09/19 08:08:27;;;;;;;5.22;1.38;;;15.00;99.90;;;;;;5022710;28;20052;-81
2023/09/19 08:10:55;;;;;;;5.40;0.85;;;15.00;99.90;;;;;;5022993;28;20435;-79
2023/09/19 08:13:21;;;;;;;6.15;0.88;;;15.00;99.90;;;;;;5023351;28;20136;-78
2023/09/19 08:15:47;;;;;;;5.35;1.60;;;15.00;99.90;;;;;;5023301;28;20124;-80
2023/09/19 08:18:14;;;;;;;2.05;1.02;;;15.10;99.90;;;;;;5004539;28;20141;-83
2023/09/19 08:20:42;;;;;;;3.85;1.00;;;15.10;99.90;;;;;;5023569;28;20072;-82
2023/09/19 08:23:08;;;;;;;2.45;1.23;;;15.10;99.90;;;;;;5006091;28;20083;-80
2023/09/19 08:25:34;;;;;;;2.95;0.73;;;15.20;99.90;;;;;;5006368;28;20057;-80
2023/09/19 08:28:01;;;;;;;6.68;1.35;;;15.20;99.90;;;;;;5023453;28;20095;-80
2023/09/19 08:30:30;;;;;;;4.47;1.60;;;15.20;99.90;;;;;;5005132;28;20060;-79
2023/09/19 08:32:59;;;;;;;7.78;1.38;;;15.20;99.90;;;;;;5005286;28;20041;-82
2023/09/19 08:35:25;;;;;;;8.73;1.95;;;15.30;99.90;;;;;;5005539;28;20115;-83
2023/09/19 08:37:51;;;;;;;4.75;0.98;;;15.30;99.90;;;;;;5022759;28;20061;-79
2023/09/19 08:40:17;;;;;;;2.22;0.70;;;15.40;99.90;;;;;;5005430;28;20088;-79
2023/09/19 08:42:56;;;;;;;5.40;1.70;;;15.40;99.90;;;;;;5006068;28;20081;-78
2023/09/19 08:45:28;;;;;;;2.70;0.70;;;15.50;99.90;;;;;;5005442;28;20081;-80
2023/09/19 08:48:06;;;;;;;3.45;1.10;;;15.50;99.90;;;;;;5022182;28;20087;-83
2023/09/19 08:50:36;;;;;;;11.88;1.48;;;15.60;99.90;;;;;;5005205;28;20664;-78
2023/09/19 08:53:09;;;;;;;6.43;1.10;;;15.60;99.90;;;;;;4988994;28;20046;-75
2023/09/19 08:55:35;;;;;;;1.98;0.75;;;15.60;99.90;;;;;;5005120;28;20124;-79
2023/09/19 08:58:04;;;;;;;5.50;1.48;;;15.60;99.90;;;;;;5005242;28;20170;-78
2023/09/19 09:00:31;;;;;;;4.28;1.27;;;15.70;99.90;;;;;;4988850;28;20045;-82
2023/09/19 09:02:58;;;;;;;2.97;1.17;;;15.70;99.90;;;;;;5021536;28;20084;-81
2023/09/19 09:05:24;;;;;;;5.45;1.50;;;15.70;99.90;;;;;;5022474;28;20052;-82
2023/09/19 09:07:56;;;;;;;9.75;1.77;;;15.70;99.90;;;;;;5005994;28;20042;-81
2023/09/19 09:10:22;;;;;;;6.20;1.30;;;15.80;99.90;;;;;;5002685;28;20339;-78
2023/09/19 09:12:51;;;;;;;6.30;1.17;;;15.80;99.90;;;;;;5003217;28;20455;-82
2023/09/19 09:15:21;;;;;;;5.00;1.30;;;15.80;99.90;;;;;;5002166;28;20084;-82
2023/09/19 09:17:52;;;;;;;2.92;1.23;;;15.90;99.90;;;;;;4984313;28;20508;-79
2023/09/19 09:20:19;;;;;;;3.70;1.35;;;15.90;99.90;;;;;;5002310;28;20126;-82
2023/09/19 09:22:55;;;;;;;8.43;1.95;;;15.90;99.90;;;;;;4985476;28;20552;-83
2023/09/19 09:25:25;;;;;;;13.52;1.95;;;16.00;99.90;;;;;;5002550;28;20073;-80
2023/09/19 09:28:03;;;;;;;7.60;1.85;;;16.00;99.90;;;;;;4985045;28;20373;-82
2023/09/19 09:30:36;;;;;;;5.93;1.38;;;16.10;99.90;;;;;;5002329;28;20969;-80
2023/09/19 09:33:12;;;;;;;3.72;1.58;;;16.10;99.90;;;;;;4967479;28;20078;-81
2023/09/19 09:35:56;;;;;;;6.10;1.30;;;16.20;99.90;;;;;;4985520;28;20050;-83
2023/09/19 09:38:32;;;;;;;2.88;0.90;;;16.20;99.90;;;;;;4984434;28;20100;-83
2023/09/19 09:41:01;;;;;;;3.33;1.00;;;16.30;99.90;;;;;;4984747;28;20551;-81
2023/09/19 09:43:38;;;;;;;1.73;0.80;;;16.30;99.90;;;;;;4984318;28;20076;-81
2023/09/19 09:51:42;;;;;;;5.50;0.73;;;16.40;99.90;;;;;;4992190;28;20514;-79
2023/09/19 09:54:21;;;;;;;3.95;1.27;;;16.40;99.90;;;;;;4994371;28;20719;-78
2023/09/19 09:57:13;;;;;;;5.07;1.02;;;16.40;99.90;;;;;;5004535;28;20049;-81
2023/09/19 09:59:55;;;;;;;4.53;1.50;;;16.50;99.90;;;;;;5004270;28;20049;-77
2023/09/19 10:02:36;;;;;;;;;;;16.50;99.90;;;;;;5003736;28;20055;-82
2023/09/19 10:07:42;;;;;;;6.25;1.27;;;16.60;99.90;;;;;;4999889;28;20049;-80
2023/09/19 10:10:23;;;;;;;4.40;1.52;;;16.60;99.90;;;;;;5003606;28;20037;-83
2023/09/19 10:12:56;;;;;;;3.03;1.27;;;16.70;99.90;;;;;;5003411;28;20487;-80
2023/09/19 10:15:26;;;;;;;6.47;1.08;;;16.70;99.90;;;;;;5008323;28;20042;-81
2023/09/19 10:17:54;;;;;;;3.08;1.20;;;16.70;99.90;;;;;;4998021;28;20037;-79
2023/09/19 10:20:41;;;;;;;4.85;1.50;;;16.70;99.90;;;;;;5017882;28;20049;-82
2023/09/19 10:23:12;;;;;;;10.70;1.40;;;16.80;99.90;;;;;;5004681;28;20051;-75
2023/09/19 10:25:39;;;;;;;8.50;1.75;;;16.80;99.90;;;;;;4989558;28;20129;-81
2023/09/19 10:28:11;;;;;;;5.53;1.42;;;16.80;99.90;;;;;;4997029;28;20049;-79
2023/09/19 10:30:44;;;;;;;4.68;1.27;;;16.90;99.90;;;;;;4988117;28;20092;-82
2023/09/19 10:33:10;;;;;;;3.78;1.33;;;16.90;99.90;;;;;;4986183;28;20045;-80
2023/09/19 10:35:42;;;;;;;6.15;1.55;;;16.90;99.90;;;;;;4987600;28;20397;-80
2023/09/19 10:38:11;;;;;;;4.03;1.30;;;16.90;99.90;;;;;;4987804;28;20053;-83
2023/09/19 10:40:42;;;;;;;7.53;1.42;;;16.90;99.90;;;;;;4984631;28;20116;-80
2023/09/19 10:43:11;;;;;;;5.37;1.90;;;16.90;99.90;;;;;;5003970;28;20553;-77
2023/09/19 10:45:40;;;;;;;7.28;1.15;;;16.90;99.90;;;;;;4985148;28;20069;-90
2023/09/19 10:48:07;;;;;;;4.68;1.15;;;16.90;99.90;;;;;;5003118;28;20037;-83
2023/09/19 10:51:17;;;;;;;8.40;1.63;;;16.80;99.90;;;;;;4983823;28;20379;-80
2023/09/19 10:53:51;;;;;;;5.18;2.45;;;16.80;99.90;;;;;;4988272;28;20125;-85
2023/09/19 10:56:27;;;;;;;7.47;1.73;;;16.80;99.90;;;;;;5000393;28;20077;-82
2023/09/19 10:59:10;;;;;;;4.93;2.65;;;16.80;99.90;;;;;;5003445;28;20121;-87
2023/09/19 11:01:52;;;;;;;5.55;1.83;;;16.80;99.90;;;;;;5020518;28;20110;-80
2023/09/19 11:04:21;;;;;;;;;;;16.80;99.90;;;;;;5000962;28;20025;-81
2023/09/19 11:07:00;;;;;;;3.80;1.88;;;16.90;99.90;;;;;;4982750;28;19952;-77
2023/09/19 11:09:43;;;;;;;3.10;1.73;;;16.90;99.90;;;;;;4991171;28;20088;-79
2023/09/19 11:12:09;;;;;;;4.03;1.73;;;17.00;99.90;;;;;;4983910;28;20088;-77
2023/09/19 11:14:40;;;;;;;5.72;1.98;;;17.00;99.90;;;;;;5000528;28;20085;-76
2023/09/19 11:17:19;;;;;;;8.43;2.78;;;17.00;99.90;;;;;;5002963;28;20054;-82
2023/09/19 11:22:50;;;;;;;6.18;2.95;;;17.00;99.90;;;;;;5003263;28;20061;-79
2023/09/19 11:25:47;;;;;;;4.40;2.00;;;17.00;99.90;;;;;;4986618;28;20045;-83
2023/09/19 11:28:17;;;;;;;3.42;2.05;;;17.00;99.90;;;;;;5007260;28;20042;-81
2023/09/19 11:30:48;;;;;;;4.90;1.67;;;16.90;99.90;;;;;;4990588;28;20282;-78
2023/09/19 11:33:46;;;;;;;7.55;2.35;;;16.90;99.90;;;;;;4989786;28;20045;-80
2023/09/19 11:36:19;;;;;;;2.95;1.45;;;16.90;99.90;;;;;;5005875;28;20183;-78
2023/09/19 11:38:45;;;;;;;4.35;1.52;;;16.90;99.90;;;;;;5024193;28;20052;-81
2023/09/19 11:41:26;;;;;;;8.80;1.70;;;16.90;99.90;;;;;;5006538;28;20045;-82
2023/09/19 11:44:00;;;;;;;5.38;1.88;;;16.90;99.90;;;;;;5006923;28;20045;-82
2023/09/19 11:46:27;;;;;;;7.55;2.50;;;16.80;99.90;;;;;;4988557;28;20045;-82
2023/09/19 11:48:54;;;;;;;5.82;2.20;;;16.80;99.90;;;;;;5005902;28;20728;-77
2023/09/19 11:51:26;;;;;;;5.75;2.25;;;16.70;99.90;;;;;;5006189;28;20037;-78
2023/09/19 11:53:59;;;;;;;6.53;2.00;;;16.60;99.90;;;;;;5006065;28;20139;-83
2023/09/19 11:56:31;;;;;;;6.07;2.08;;;16.60;99.90;;;;;;5022946;28;20045;-75
2023/09/19 11:58:58;;;;;;;4.32;1.85;;;16.50;99.90;;;;;;5005925;28;20041;-80
2023/09/19 12:01:32;;;;;;;8.02;2.97;;;16.50;99.90;;;;;;5004787;28;20045;-79
2023/09/19 12:04:00;;;;;;;3.35;2.45;;;16.40;99.90;;;;;;4989106;28;20045;-83
2023/09/19 12:06:27;;;;;;;6.82;1.88;;;16.40;99.90;;;;;;5000136;28;20037;-78
2023/09/19 12:08:54;;;;;;;8.63;2.00;;;16.50;99.90;;;;;;4986066;28;20299;-75
2023/09/19 12:11:22;;;;;;;7.93;1.92;;;16.50;99.90;;;;;;4984957;28;20107;-80
2023/09/19 12:13:49;;;;;;;7.15;2.17;;;16.50;99.90;;;;;;4986532;28;20096;-80
2023/09/19 12:16:16;;;;;;;3.28;1.90;;;16.60;99.90;;;;;;4984540;28;20077;-78
2023/09/19 12:18:44;;;;;;;3.63;2.17;;;16.60;99.90;;;;;;4986241;28;20124;-83
2023/09/19 12:21:35;;;;;;;5.72;1.83;;;16.70;99.90;;;;;;4985503;28;20088;-79
2023/09/19 12:24:06;;;;;;;3.03;2.03;;;16.70;99.90;;;;;;4985856;28;20524;-78
2023/09/19 12:26:41;;;;;;;4.63;1.45;;;16.80;99.90;;;;;;4986107;28;20301;-82
2023/09/19 12:29:13;;;;;;;5.38;2.13;;;16.80;99.90;;;;;;5003965;28;20049;-83
2023/09/19 12:31:57;;;;;;;7.70;2.28;;;16.80;99.90;;;;;;4968423;28;20042;-79
2023/09/19 12:34:35;;;;;;;3.17;1.70;;;16.80;99.90;;;;;;4972106;28;20547;-80
2023/09/19 12:37:11;;;;;;;7.30;1.88;;;16.90;99.90;;;;;;4996617;28;20060;-83
2023/09/19 12:39:48;;;;;;;5.43;2.00;;;16.90;99.90;;;;;;4986672;28;20057;-74
2023/09/19 12:42:15;;;;;;;4.22;1.63;;;16.90;99.90;;;;;;5003406;28;20033;-80
2023/09/19 12:44:49;;;;;;;3.00;2.10;;;16.80;99.90;;;;;;4990534;28;20448;-78
2023/09/19 12:47:19;;;;;;;3.33;1.50;;;16.80;99.90;;;;;;4988235;28;20049;-82
2023/09/19 12:50:29;;;;;;;6.32;2.33;;;16.70;99.90;;;;;;5023779;28;20384;-80
2023/09/19 12:52:56;;;;;;;8.00;1.55;;;16.80;99.90;;;;;;5005626;28;20450;-84
2023/09/19 12:55:26;;;;;;;2.92;1.30;;;16.70;99.90;;;;;;5006108;28;20042;-80
2023/09/19 12:58:12;;;;;;;3.58;2.03;;;16.70;99.90;;;;;;5004134;28;20054;-79
2023/09/19 13:00:44;;;;;;;5.18;1.60;;;16.60;99.90;;;;;;5005977;28;20045;-78
2023/09/19 13:03:26;;;;;;;5.95;1.50;;;16.60;99.90;;;;;;5004083;28;20037;-76
2023/09/19 13:06:04;;;;;;;4.65;1.98;;;16.60;99.90;;;;;;5004600;28;20051;-79
2023/09/19 13:08:41;;;;;;;4.07;1.10;;;16.60;99.90;;;;;;4969427;28;20096;-77
2023/09/19 13:11:12;;;;;;;5.00;1.70;;;16.60;99.90;;;;;;4988093;28;20144;-77
2023/09/19 13:14:21;;;;;;;3.33;1.23;;;16.70;99.90;;;;;;5005498;28;20037;-79